Time;durP1;ratioP1;P1;durP2;ratioP2;P2;SDS_P1;SDS_P2;PMS_P1;PMS_P2;Temp;Humidity;BMP_temperature;BMP_pressure;BME280_temperature;BME280_humidity;BME280_pressure;Samples;Min_cycle;Max_cycle;Signal;HPM_P1;HPM_P2
2023/10/22 00:00:46;;;;;;;5.82;2.22;;;;;;;11.77;100.00;99401.69;5016327;28;20367;-75
2023/10/22 00:03:11;;;;;;;2.58;1.58;;;;;;;11.80;100.00;99406.75;5014274;28;20038;-75
2023/10/22 00:05:37;;;;;;;6.75;1.95;;;;;;;11.79;100.00;99415.53;5014053;28;20237;-75
2023/10/22 00:08:02;;;;;;;4.78;2.08;;;;;;;11.79;100.00;99407.69;5016097;28;20349;-75
2023/10/22 00:10:28;;;;;;;6.60;2.08;;;;;;;11.74;100.00;99408.00;5013999;28;20331;-75
2023/10/22 00:12:53;;;;;;;4.38;2.30;;;;;;;11.76;100.00;99408.75;5016479;28;20034;-75
2023/10/22 00:15:20;;;;;;;7.30;2.05;;;;;;;11.77;100.00;99413.06;5014477;28;20092;-75
2023/10/22 00:17:46;;;;;;;3.97;2.00;;;;;;;11.79;100.00;99410.28;5016344;28;20035;-75
2023/10/22 00:20:12;;;;;;;6.22;2.30;;;;;;;11.78;100.00;99427.81;5014787;28;20264;-75
2023/10/22 00:22:38;;;;;;;14.90;2.53;;;;;;;11.77;100.00;99425.31;5014743;28;20399;-75
2023/10/22 00:25:03;;;;;;;3.72;2.28;;;;;;;11.79;100.00;99434.75;5016817;28;20045;-76
2023/10/22 00:27:29;;;;;;;2.53;1.70;;;;;;;11.84;100.00;99434.44;5016040;28;20049;-75
2023/10/22 00:29:54;;;;;;;5.28;2.00;;;;;;;11.81;100.00;99437.28;5013600;28;20234;-75
2023/10/22 00:32:19;;;;;;;4.20;1.73;;;;;;;11.80;100.00;99433.81;5015369;28;20045;-75
2023/10/22 00:34:45;;;;;;;5.35;1.98;;;;;;;11.79;100.00;99449.63;5014799;28;20033;-75
2023/10/22 00:37:10;;;;;;;3.00;1.70;;;;;;;11.81;100.00;99448.59;5014471;28;20041;-75
2023/10/22 00:39:35;;;;;;;6.07;2.20;;;;;;;11.78;100.00;99464.53;5012854;28;20065;-75
2023/10/22 00:42:01;;;;;;;5.60;1.95;;;;;;;11.78;100.00;99467.16;5011752;28;20030;-75
2023/10/22 00:44:27;;;;;;;2.40;2.20;;;;;;;11.77;100.00;99462.88;5015973;28;20259;-75
2023/10/22 00:46:54;;;;;;;3.25;2.13;;;;;;;11.79;100.00;99466.25;5015492;28;20037;-75
2023/10/22 00:49:20;;;;;;;2.25;1.98;;;;;;;11.78;100.00;99472.41;5006716;28;20041;-75
2023/10/22 00:51:46;;;;;;;2.88;1.83;;;;;;;11.79;100.00;99474.09;5013852;28;20356;-75
2023/10/22 00:54:14;;;;;;;4.30;2.35;;;;;;;11.86;100.00;99485.00;5015196;28;20280;-75
2023/10/22 00:56:41;;;;;;;4.75;2.05;;;;;;;11.84;100.00;99487.75;5013129;28;20033;-75
2023/10/22 00:59:06;;;;;;;7.78;2.10;;;;;;;11.85;100.00;99483.34;5014461;28;20101;-75
2023/10/22 01:01:32;;;;;;;5.85;1.90;;;;;;;11.85;100.00;99488.59;5012768;28;20033;-75
2023/10/22 01:03:58;;;;;;;3.15;2.17;;;;;;;11.87;100.00;99491.94;5014221;28;20283;-75
2023/10/22 01:06:23;;;;;;;4.40;2.10;;;;;;;11.88;100.00;99496.25;5012791;28;21691;-75
2023/10/22 01:08:49;;;;;;;2.20;1.70;;;;;;;11.90;100.00;99507.53;4998404;28;20077;-75
2023/10/22 01:11:15;;;;;;;7.93;2.38;;;;;;;11.93;100.00;99509.09;5015197;28;20061;-75
2023/10/22 01:13:41;;;;;;;4.30;2.05;;;;;;;11.93;100.00;99509.91;5012139;28;20353;-75
2023/10/22 01:16:08;;;;;;;4.65;1.60;;;;;;;11.94;100.00;99513.41;5015324;28;20111;-75
2023/10/22 01:18:33;;;;;;;2.05;1.40;;;;;;;11.96;100.00;99522.84;5013306;28;20033;-75
2023/10/22 01:20:59;;;;;;;1.90;1.27;;;;;;;11.98;100.00;99525.38;5014225;28;20093;-75
2023/10/22 01:23:25;;;;;;;1.50;1.20;;;;;;;12.00;100.00;99531.34;5015974;28;20271;-75
2023/10/22 01:25:51;;;;;;;2.88;1.30;;;;;;;12.00;100.00;99532.16;5015304;28;20040;-75
2023/10/22 01:28:17;;;;;;;1.20;1.10;;;;;;;12.02;100.00;99543.41;5012386;28;20033;-75
2023/10/22 01:30:42;;;;;;;1.20;1.13;;;;;;;12.04;100.00;99541.53;5012576;28;20048;-75
2023/10/22 01:33:08;;;;;;;1.73;1.08;;;;;;;12.05;100.00;99547.63;5010249;28;20038;-76
2023/10/22 01:35:33;;;;;;;2.17;1.58;;;;;;;12.04;100.00;99549.41;5013755;28;20042;-75
2023/10/22 01:37:59;;;;;;;2.20;0.85;;;;;;;12.07;100.00;99558.84;5016011;28;20033;-76
2023/10/22 01:40:24;;;;;;;1.95;1.25;;;;;;;12.10;100.00;99567.34;5014318;28;20033;-76
2023/10/22 01:42:51;;;;;;;3.88;1.15;;;;;;;12.14;100.00;99573.25;5013298;28;20030;-76
2023/10/22 01:45:17;;;;;;;4.20;1.40;;;;;;;12.17;100.00;99575.66;5014882;28;20224;-76
2023/10/22 01:47:43;;;;;;;5.55;1.60;;;;;;;12.20;100.00;99587.72;5013441;28;20057;-76
2023/10/22 01:50:08;;;;;;;2.65;1.42;;;;;;;12.21;100.00;99589.44;5015264;28;20052;-77
2023/10/22 01:52:34;;;;;;;5.30;1.63;;;;;;;12.22;100.00;99612.09;5011621;28;20086;-77
2023/10/22 01:54:59;;;;;;;1.65;1.17;;;;;;;12.23;100.00;99640.03;5014337;28;20044;-77
2023/10/22 01:57:25;;;;;;;1.88;1.10;;;;;;;12.24;100.00;99620.69;5013136;28;20568;-76
2023/10/22 01:59:53;;;;;;;2.28;1.30;;;;;;;12.26;100.00;99639.81;5012846;28;20061;-76
2023/10/22 02:04:54;;;;;;;1.48;0.77;;;;;;;12.28;100.00;99653.69;5125619;23;20065;-76
2023/10/22 02:07:19;;;;;;;1.10;0.85;;;;;;;12.28;100.00;99664.19;4997191;28;20089;-76
2023/10/22 02:09:45;;;;;;;4.75;1.40;;;;;;;12.25;100.00;99659.97;4995323;28;20387;-76
2023/10/22 02:12:10;;;;;;;5.97;1.17;;;;;;;12.27;100.00;99680.88;4994004;28;20038;-76
2023/10/22 02:14:36;;;;;;;2.78;1.35;;;;;;;12.24;100.00;99681.94;4995874;28;20221;-75
2023/10/22 02:17:02;;;;;;;3.30;1.40;;;;;;;12.23;100.00;99698.63;4995659;28;20080;-75
2023/10/22 02:19:27;;;;;;;3.97;1.27;;;;;;;12.25;100.00;99709.84;4995296;28;20061;-76
2023/10/22 02:21:53;;;;;;;3.90;1.48;;;;;;;12.26;100.00;99710.69;4995726;28;20026;-76
2023/10/22 02:24:19;;;;;;;3.15;1.52;;;;;;;12.25;100.00;99727.38;4994147;28;20030;-76
2023/10/22 02:26:45;;;;;;;2.58;1.10;;;;;;;12.25;100.00;99724.75;4993615;28;20030;-76
2023/10/22 02:29:12;;;;;;;2.25;1.20;;;;;;;12.26;100.00;99737.78;4993885;28;20026;-75
2023/10/22 02:31:37;;;;;;;2.28;1.60;;;;;;;12.24;100.00;99747.56;5010079;28;20245;-76
2023/10/22 02:34:07;;;;;;;5.20;2.47;;;;;;;12.23;100.00;99760.78;4994822;28;20034;-75
2023/10/22 02:36:33;;;;;;;4.22;2.58;;;;;;;12.24;100.00;99783.44;4995028;28;20049;-76
2023/10/22 02:38:59;;;;;;;4.10;3.03;;;;;;;12.28;100.00;99792.81;4995894;28;20137;-74
2023/10/22 02:41:25;;;;;;;6.28;3.30;;;;;;;12.24;100.00;99801.81;4995531;28;20435;-74
2023/10/22 02:43:50;;;;;;;5.45;3.30;;;;;;;12.28;100.00;99809.41;4995210;28;20038;-74
2023/10/22 02:46:16;;;;;;;3.60;2.97;;;;;;;12.31;100.00;99812.78;4993892;28;20105;-74
2023/10/22 02:48:41;;;;;;;7.22;3.10;;;;;;;12.32;100.00;99825.81;4995424;28;20026;-74
2023/10/22 02:51:07;;;;;;;4.43;3.20;;;;;;;12.29;100.00;99831.25;4993875;28;20357;-74
2023/10/22 02:53:32;;;;;;;4.28;3.10;;;;;;;12.27;100.00;99844.47;5010002;28;20085;-76
2023/10/22 02:56:02;;;;;;;9.85;2.80;;;;;;;12.18;100.00;99845.06;4995197;28;20036;-76
2023/10/22 02:58:29;;;;;;;3.95;2.42;;;;;;;12.10;100.00;99857.84;4994798;28;20038;-76
2023/10/22 03:00:55;;;;;;;4.47;2.65;;;;;;;12.09;100.00;99867.47;4995429;28;20357;-76
2023/10/22 03:03:21;;;;;;;2.63;2.42;;;;;;;12.07;100.00;99879.00;4994696;28;20041;-76
2023/10/22 03:05:46;;;;;;;2.70;2.10;;;;;;;12.04;100.00;99885.31;4991168;28;20046;-76
2023/10/22 03:08:11;;;;;;;3.47;2.00;;;;;;;12.01;100.00;99888.09;4995134;28;20042;-76
2023/10/22 03:10:37;;;;;;;6.25;2.00;;;;;;;11.95;100.00;99887.63;4995279;28;20027;-76
2023/10/22 03:13:03;;;;;;;2.90;1.50;;;;;;;11.90;100.00;99895.81;4998598;28;20336;-76
2023/10/22 03:15:28;;;;;;;9.63;2.15;;;;;;;11.85;100.00;99906.53;5013541;28;20037;-76
2023/10/22 03:17:54;;;;;;;1.98;1.67;;;;;;;11.85;100.00;99905.69;4999065;28;20240;-76
2023/10/22 03:20:19;;;;;;;2.13;1.67;;;;;;;11.84;100.00;99906.63;4990665;28;20074;-76
2023/10/22 03:22:44;;;;;;;3.42;1.58;;;;;;;11.83;100.00;99912.81;4981587;28;20043;-75
2023/10/22 03:25:12;;;;;;;3.38;1.60;;;;;;;11.80;100.00;99918.25;4983254;28;20101;-76
2023/10/22 03:27:37;;;;;;;3.58;1.67;;;;;;;11.80;100.00;99926.94;4982625;28;20097;-75
2023/10/22 03:30:03;;;;;;;2.85;1.30;;;;;;;11.78;100.00;99926.19;5011310;28;20035;-76
2023/10/22 03:32:29;;;;;;;2.63;1.55;;;;;;;11.78;100.00;99928.00;4992292;28;20088;-76
2023/10/22 03:34:55;;;;;;;2.63;1.20;;;;;;;11.76;100.00;99941.19;4997494;28;20229;-75
2023/10/22 03:37:20;;;;;;;1.73;1.27;;;;;;;11.75;100.00;99942.16;4985613;28;20133;-76
2023/10/22 03:39:46;;;;;;;3.15;1.63;;;;;;;11.75;100.00;99952.63;4989089;28;20062;-76
2023/10/22 03:42:11;;;;;;;6.13;1.38;;;;;;;11.74;100.00;99957.97;4980171;28;20038;-75
2023/10/22 03:44:36;;;;;;;2.78;1.30;;;;;;;11.74;100.00;99961.44;4978809;28;20038;-76
2023/10/22 03:47:02;;;;;;;1.60;1.25;;;;;;;11.73;100.00;99970.22;4985648;28;20073;-76
2023/10/22 03:49:27;;;;;;;1.80;1.35;;;;;;;11.70;100.00;99973.88;4988140;28;20042;-76
2023/10/22 03:51:53;;;;;;;2.53;1.10;;;;;;;11.70;100.00;99976.50;4995261;28;20039;-75
2023/10/22 03:54:18;;;;;;;0.90;0.90;;;;;;;11.70;100.00;99987.00;4978909;28;20038;-75
2023/10/22 03:56:43;;;;;;;1.60;1.20;;;;;;;11.68;100.00;99988.88;4992090;28;20209;-75
2023/10/22 03:59:09;;;;;;;1.88;1.13;;;;;;;11.66;100.00;99993.34;4986410;28;20123;-76
2023/10/22 04:01:35;;;;;;;1.75;1.20;;;;;;;11.65;100.00;99999.53;4997871;28;20056;-76
2023/10/22 04:04:00;;;;;;;1.20;0.98;;;;;;;11.63;100.00;100009.25;4997200;28;20348;-75
2023/10/22 04:06:26;;;;;;;1.90;1.10;;;;;;;11.61;100.00;100015.53;4995265;28;20038;-75
2023/10/22 04:08:51;;;;;;;1.30;1.10;;;;;;;11.62;100.00;100030.34;4982763;28;20105;-76
2023/10/22 04:11:20;;;;;;;1.52;1.15;;;;;;;11.63;100.00;100037.28;4994354;28;20223;-75
2023/10/22 04:13:46;;;;;;;1.58;1.48;;;;;;;11.61;100.00;100034.75;4997300;28;20038;-75
2023/10/22 04:16:15;;;;;;;2.28;1.20;;;;;;;11.53;100.00;100040.44;4997620;28;20317;-75
2023/10/22 04:18:41;;;;;;;1.42;1.00;;;;;;;11.55;100.00;100048.22;4986368;28;20034;-76
2023/10/22 04:21:15;;;;;;;3.17;1.15;;;;;;;11.57;100.00;100046.34;4978184;28;20356;-76
2023/10/22 04:23:41;;;;;;;3.33;1.38;;;;;;;11.54;100.00;100057.00;4978105;28;20038;-76
2023/10/22 04:26:14;;;;;;;1.42;1.10;;;;;;;11.54;100.00;100054.38;4987914;28;20065;-75
2023/10/22 04:28:40;;;;;;;2.30;1.40;;;;;;;11.55;100.00;100061.31;4989902;28;20229;-75
2023/10/22 04:31:07;;;;;;;1.35;1.20;;;;;;;11.55;100.00;100058.72;4990299;28;20101;-75
2023/10/22 04:33:33;;;;;;;3.10;1.10;;;;;;;11.54;100.00;100064.88;4982842;28;20364;-75
2023/10/22 04:35:58;;;;;;;1.35;1.20;;;;;;;11.53;100.00;100069.28;4986534;28;20045;-76
2023/10/22 04:38:24;;;;;;;2.08;1.50;;;;;;;11.51;100.00;100083.38;4992447;28;20026;-75
2023/10/22 04:40:49;;;;;;;2.13;1.42;;;;;;;11.50;100.00;100100.06;4978108;28;20046;-75
2023/10/22 04:43:14;;;;;;;5.70;1.58;;;;;;;11.51;100.00;100099.13;4978687;28;20035;-76
2023/10/22 04:45:47;;;;;;;3.05;1.80;;;;;;;11.49;100.00;100101.00;4977926;28;20038;-76
2023/10/22 04:48:12;;;;;;;3.05;1.58;;;;;;;11.39;100.00;100102.44;4977866;28;20042;-76
2023/10/22 04:50:38;;;;;;;1.63;1.20;;;;;;;11.40;100.00;100102.34;4993317;28;20332;-76
2023/10/22 04:53:03;;;;;;;2.90;1.10;;;;;;;11.41;100.00;100090.94;4977483;28;20038;-76
2023/10/22 04:55:29;;;;;;;3.20;1.30;;;;;;;11.40;100.00;100091.84;4985144;28;20042;-75
2023/10/22 04:57:55;;;;;;;2.00;1.30;;;;;;;11.40;100.00;100102.34;4977777;28;20265;-76
2023/10/22 05:00:21;;;;;;;1.88;1.15;;;;;;;11.40;100.00;100107.59;4989602;28;20049;-76
2023/10/22 05:02:46;;;;;;;2.35;1.10;;;;;;;11.40;100.00;100107.59;4995020;28;20030;-76
2023/10/22 05:05:12;;;;;;;1.17;0.75;;;;;;;11.39;100.00;100105.91;4991609;28;20053;-75
2023/10/22 05:07:38;;;;;;;2.30;1.23;;;;;;;11.38;100.00;100108.63;4988770;28;20043;-76
2023/10/22 05:10:04;;;;;;;1.75;1.10;;;;;;;11.39;100.00;100115.53;4985310;28;20214;-75
2023/10/22 05:12:29;;;;;;;1.10;0.90;;;;;;;11.36;100.00;100113.94;4995540;28;20049;-76
2023/10/22 05:14:55;;;;;;;1.17;1.00;;;;;;;11.36;100.00;100116.56;4994910;28;20022;-76
2023/10/22 05:17:20;;;;;;;1.80;1.35;;;;;;;11.35;100.00;100125.38;4995352;28;20045;-76
2023/10/22 05:19:48;;;;;;;2.65;1.33;;;;;;;11.35;100.00;100122.75;4991830;28;20042;-76
2023/10/22 05:22:14;;;;;;;0.90;0.90;;;;;;;11.34;100.00;100129.75;4977018;28;20042;-76
2023/10/22 05:24:39;;;;;;;2.15;0.80;;;;;;;11.32;100.00;100130.78;4975663;28;20065;-76
2023/10/22 05:27:04;;;;;;;3.17;1.00;;;;;;;11.31;100.00;100144.81;4992293;28;20062;-76
2023/10/22 05:29:30;;;;;;;1.10;1.00;;;;;;;11.29;100.00;100137.00;4976875;28;20058;-76
2023/10/22 05:31:55;;;;;;;2.72;1.10;;;;;;;11.28;100.00;100150.22;4992007;28;20053;-75
2023/10/22 05:34:21;;;;;;;1.58;1.25;;;;;;;11.28;100.00;100163.34;4977489;28;20237;-76
2023/10/22 05:36:46;;;;;;;1.10;1.00;;;;;;;11.30;100.00;100154.44;4995233;28;20062;-75
2023/10/22 05:39:11;;;;;;;2.17;1.23;;;;;;;11.28;100.00;100165.97;4995440;28;20233;-75
2023/10/22 05:41:37;;;;;;;2.22;1.10;;;;;;;11.26;100.00;100171.28;4989450;28;20034;-75
2023/10/22 05:44:03;;;;;;;4.40;1.70;;;;;;;11.26;100.00;100173.91;4977826;28;20100;-75
2023/10/22 05:46:33;;;;;;;3.08;1.25;;;;;;;11.24;100.00;100175.75;4976769;28;20459;-76
2023/10/22 05:49:00;;;;;;;2.17;1.02;;;;;;;11.26;100.00;100189.63;5007802;28;20036;-76
2023/10/22 05:51:25;;;;;;;1.73;1.25;;;;;;;11.26;100.00;100194.00;4982634;28;20325;-76
2023/10/22 05:53:51;;;;;;;1.77;1.40;;;;;;;11.25;100.00;100194.94;4976322;28;20066;-75
2023/10/22 05:56:16;;;;;;;2.17;1.60;;;;;;;11.26;100.00;100201.88;4980051;28;20042;-76
2023/10/22 05:58:43;;;;;;;2.15;1.90;;;;;;;11.26;100.00;100194.88;5008294;28;20345;-76
2023/10/22 06:01:09;;;;;;;4.55;2.25;;;;;;;11.26;100.00;100204.47;4987193;28;20038;-76
2023/10/22 06:03:35;;;;;;;4.05;2.10;;;;;;;11.25;100.00;100208.06;4989658;28;20320;-75
2023/10/22 06:06:01;;;;;;;2.50;1.85;;;;;;;11.23;100.00;100213.38;4995538;28;20034;-76
2023/10/22 06:08:27;;;;;;;3.63;2.20;;;;;;;11.23;100.00;100215.16;4995140;28;20069;-75
2023/10/22 06:10:52;;;;;;;2.03;1.52;;;;;;;11.22;100.00;100223.94;4994587;28;20045;-75
2023/10/22 06:13:17;;;;;;;3.08;1.70;;;;;;;11.23;100.00;100220.41;4976598;28;20324;-75
2023/10/22 06:15:44;;;;;;;2.65;1.67;;;;;;;11.24;100.00;100237.81;4988627;28;20322;-75
2023/10/22 06:18:10;;;;;;;2.05;1.70;;;;;;;11.24;100.00;100238.66;4978828;28;20062;-75
2023/10/22 06:20:36;;;;;;;1.58;1.35;;;;;;;11.24;100.00;100243.91;4985733;28;20041;-75
2023/10/22 06:23:03;;;;;;;1.95;1.83;;;;;;;11.24;100.00;100245.66;4993012;28;20148;-75
2023/10/22 06:25:29;;;;;;;3.97;1.85;;;;;;;11.23;100.00;100236.13;4993190;28;20038;-75
2023/10/22 06:27:55;;;;;;;2.30;1.83;;;;;;;11.24;100.00;100249.16;4986178;28;20045;-75
2023/10/22 06:30:25;;;;;;;2.25;1.63;;;;;;;11.22;100.00;100250.97;4993353;28;20414;-75
2023/10/22 06:32:57;;;;;;;1.90;1.30;;;;;;;11.23;100.00;100257.09;4991698;28;20034;-75
2023/10/22 06:35:23;;;;;;;2.05;1.40;;;;;;;11.23;100.00;100263.16;4990620;28;20048;-75
2023/10/22 06:37:53;;;;;;;1.65;1.55;;;;;;;11.24;100.00;100275.38;4985279;28;20030;-75
2023/10/22 06:40:22;;;;;;;2.00;1.55;;;;;;;11.24;100.00;100270.13;4994760;28;20130;-75
2023/10/22 06:42:48;;;;;;;3.55;1.75;;;;;;;11.23;100.00;100291.16;4981833;28;20034;-75
2023/10/22 06:45:14;;;;;;;3.25;1.55;;;;;;;11.23;100.00;100296.41;4975504;28;20245;-75
2023/10/22 06:47:40;;;;;;;4.80;1.60;;;;;;;11.20;100.00;100296.56;4975832;28;20034;-75
2023/10/22 06:50:11;;;;;;;5.47;3.28;;;;;;;11.18;100.00;100311.53;4975649;28;20105;-76
2023/10/22 06:52:37;;;;;;;5.13;1.70;;;;;;;11.15;100.00;100309.88;4978647;28;20144;-75
2023/10/22 06:55:03;;;;;;;1.70;1.60;;;;;;;11.13;100.00;100314.38;4993993;28;20057;-75
2023/10/22 06:57:28;;;;;;;2.80;1.73;;;;;;;11.12;100.00;100324.00;4982382;28;20046;-75
2023/10/22 06:59:56;;;;;;;2.67;1.90;;;;;;;11.12;100.00;100316.16;4978831;28;20308;-75
2023/10/22 07:02:22;;;;;;;1.80;1.70;;;;;;;11.12;100.00;100325.78;4984301;28;20248;-75
2023/10/22 07:04:51;;;;;;;3.45;1.67;;;;;;;11.11;100.00;100334.56;4988803;28;20039;-75
2023/10/22 07:07:17;;;;;;;1.90;1.63;;;;;;;11.12;100.00;100334.50;4984879;28;20101;-75
2023/10/22 07:09:42;;;;;;;5.38;1.77;;;;;;;11.11;100.00;100348.53;4990072;28;20038;-75
2023/10/22 07:12:08;;;;;;;2.08;1.88;;;;;;;11.11;100.00;100343.28;4993711;28;20040;-75
2023/10/22 07:14:33;;;;;;;3.83;2.45;;;;;;;11.10;100.00;100346.00;4991301;28;20065;-75
2023/10/22 07:16:58;;;;;;;2.60;2.28;;;;;;;11.09;100.00;100357.38;4995247;28;20034;-75
2023/10/22 07:19:24;;;;;;;2.80;1.88;;;;;;;11.06;100.00;100360.16;4993446;28;20075;-76
2023/10/22 07:21:49;;;;;;;2.38;2.17;;;;;;;11.09;100.00;100370.50;4994598;28;20035;-75
2023/10/22 07:24:14;;;;;;;1.88;1.77;;;;;;;11.11;100.00;100379.13;4994664;28;20046;-75
2023/10/22 07:26:40;;;;;;;2.50;1.92;;;;;;;11.12;100.00;100383.44;4994892;28;20030;-75
2023/10/22 07:29:05;;;;;;;2.25;1.70;;;;;;;11.11;100.00;100382.59;4994884;28;20038;-75
2023/10/22 07:31:30;;;;;;;2.20;2.00;;;;;;;11.12;100.00;100386.06;4994824;28;20033;-75
2023/10/22 07:33:56;;;;;;;3.35;1.83;;;;;;;11.12;100.00;100386.06;4995073;28;20437;-75
2023/10/22 07:36:21;;;;;;;2.00;1.80;;;;;;;11.13;100.00;100396.47;4994205;28;20046;-75
2023/10/22 07:38:51;;;;;;;1.88;1.65;;;;;;;11.16;100.00;100400.69;4992372;28;20270;-75
2023/10/22 07:41:17;;;;;;;2.47;1.70;;;;;;;11.17;100.00;100399.78;4992460;28;20033;-75
2023/10/22 07:43:43;;;;;;;2.42;1.73;;;;;;;11.16;100.00;100407.72;4992489;28;20209;-75
2023/10/22 07:46:10;;;;;;;2.63;1.95;;;;;;;11.18;100.00;100418.97;4990049;28;20069;-75
2023/10/22 07:48:35;;;;;;;2.42;1.90;;;;;;;11.19;100.00;100416.28;4975809;28;20054;-75
2023/10/22 07:51:15;;;;;;;2.95;1.98;;;;;;;11.20;100.00;100417.97;4976922;28;20031;-76
2023/10/22 07:53:41;;;;;;;2.08;1.65;;;;;;;11.20;100.00;100417.13;4982954;28;20030;-76
2023/10/22 07:56:06;;;;;;;6.80;2.85;;;;;;;11.20;100.00;100419.75;4991700;28;20374;-76
2023/10/22 07:58:32;;;;;;;1.73;1.63;;;;;;;11.21;100.00;100416.22;4992016;28;20045;-76
2023/10/22 08:00:59;;;;;;;2.08;1.65;;;;;;;11.23;100.00;100427.47;4995891;28;20268;-76
2023/10/22 08:03:26;;;;;;;1.98;1.77;;;;;;;11.23;100.00;100436.16;4994069;28;20062;-76
2023/10/22 08:05:52;;;;;;;2.10;1.83;;;;;;;11.22;100.00;100429.22;4995872;28;20054;-75
2023/10/22 08:08:17;;;;;;;2.10;1.90;;;;;;;11.22;100.00;100437.06;4995871;28;20424;-76
2023/10/22 08:10:42;;;;;;;2.40;2.00;;;;;;;11.23;100.00;100437.94;4993823;28;20061;-76
2023/10/22 08:13:08;;;;;;;3.13;2.47;;;;;;;11.23;100.00;100436.16;4998198;28;20249;-76
2023/10/22 08:15:34;;;;;;;2.30;1.98;;;;;;;11.24;100.00;100447.50;5004750;28;20037;-76
2023/10/22 08:17:59;;;;;;;3.20;1.98;;;;;;;11.24;100.00;100444.88;5005823;28;20026;-76
2023/10/22 08:20:25;;;;;;;1.73;1.60;;;;;;;11.26;100.00;100441.28;5003932;28;20085;-75
2023/10/22 08:22:50;;;;;;;5.45;2.30;;;;;;;11.28;100.00;100454.31;5003569;28;20041;-76
2023/10/22 08:25:15;;;;;;;3.72;2.10;;;;;;;11.29;100.00;100455.97;5005375;28;20100;-76
2023/10/22 08:27:41;;;;;;;3.38;1.95;;;;;;;11.31;100.00;100462.88;5003457;28;20948;-76
2023/10/22 08:30:06;;;;;;;2.95;2.05;;;;;;;11.33;100.00;100460.13;5004309;28;20037;-76
2023/10/22 08:32:35;;;;;;;2.20;2.00;;;;;;;11.32;100.00;100461.91;5006888;28;20075;-76
2023/10/22 08:35:01;;;;;;;6.07;2.45;;;;;;;11.31;100.00;100460.25;4995108;28;20030;-76
2023/10/22 08:37:27;;;;;;;7.78;2.08;;;;;;;11.34;100.00;100467.09;5008647;28;20152;-76
2023/10/22 08:39:52;;;;;;;6.65;2.15;;;;;;;11.34;100.00;100467.94;4995931;28;20030;-76
2023/10/22 08:42:22;;;;;;;5.07;1.85;;;;;;;11.38;100.00;100467.78;4995027;28;20038;-76
2023/10/22 08:44:49;;;;;;;2.20;2.00;;;;;;;11.38;100.00;100467.78;4993673;28;20045;-76
2023/10/22 08:47:15;;;;;;;5.20;2.47;;;;;;;11.40;100.00;100473.81;4990456;28;20076;-76
2023/10/22 08:49:41;;;;;;;4.80;2.03;;;;;;;11.41;100.00;100473.72;4990366;28;20030;-76
2023/10/22 08:52:10;;;;;;;4.38;2.10;;;;;;;11.42;100.00;100482.44;4993822;28;20045;-76
2023/10/22 08:54:37;;;;;;;4.38;2.10;;;;;;;11.41;100.00;100484.22;4994048;28;20034;-75
2023/10/22 08:57:02;;;;;;;5.93;2.58;;;;;;;11.42;100.00;100493.75;4992355;28;20034;-76
2023/10/22 08:59:29;;;;;;;2.05;1.50;;;;;;;11.45;100.00;100501.50;4992070;28;20533;-76
2023/10/22 09:01:54;;;;;;;2.90;1.80;;;;;;;11.45;100.00;100503.28;5006867;28;20038;-75
2023/10/22 09:04:20;;;;;;;2.97;1.88;;;;;;;11.47;100.00;100499.63;4991358;28;20272;-76
2023/10/22 09:06:46;;;;;;;6.75;2.72;;;;;;;11.50;100.00;100503.91;4990255;28;20039;-75
2023/10/22 09:09:41;;;;;;;1.65;1.52;;;;;;;11.57;100.00;100507.91;4987293;28;20031;-75
2023/10/22 09:12:10;;;;;;;2.40;1.85;;;;;;;11.60;100.00;100518.22;4984274;28;20342;-75
2023/10/22 09:14:37;;;;;;;3.15;1.73;;;;;;;11.61;100.00;100519.94;4986736;28;20359;-76
2023/10/22 09:17:23;;;;;;;4.68;1.88;;;;;;;11.61;100.00;100521.72;4984879;28;20026;-75
2023/10/22 09:19:49;;;;;;;2.70;2.08;;;;;;;11.64;100.00;100521.53;4994197;28;20104;-75
2023/10/22 09:22:26;;;;;;;2.67;1.77;;;;;;;11.69;100.00;100525.63;4992835;28;20026;-75
2023/10/22 09:24:56;;;;;;;1.85;1.73;;;;;;;11.74;100.00;100532.44;4993327;28;20050;-75
2023/10/22 09:27:29;;;;;;;4.32;2.08;;;;;;;11.79;100.00;100533.91;4990641;28;20041;-75
2023/10/22 09:29:58;;;;;;;2.75;1.63;;;;;;;11.88;100.00;100537.84;4991787;28;20034;-75
2023/10/22 09:32:23;;;;;;;2.25;1.70;;;;;;;11.92;100.00;100538.56;4992801;28;20217;-75
2023/10/22 09:34:49;;;;;;;2.15;1.70;;;;;;;11.95;100.00;100543.63;4992528;28;20034;-75
2023/10/22 09:37:14;;;;;;;2.03;1.90;;;;;;;11.98;100.00;100543.50;4997883;28;20282;-75
2023/10/22 09:39:44;;;;;;;2.95;1.77;;;;;;;11.97;100.00;100542.66;4992683;28;20039;-75
2023/10/22 09:42:15;;;;;;;3.50;2.00;;;;;;;12.02;100.00;100540.63;4993600;28;20359;-75
2023/10/22 09:44:43;;;;;;;3.65;1.77;;;;;;;12.07;100.00;100549.09;4993971;28;20281;-75
2023/10/22 09:47:09;;;;;;;3.00;1.65;;;;;;;12.14;100.00;100549.66;4990487;28;20045;-75
2023/10/22 09:49:35;;;;;;;2.65;1.73;;;;;;;12.20;100.00;100549.31;4993385;28;20241;-75
2023/10/22 09:52:06;;;;;;;4.50;1.73;;;;;;;12.22;100.00;100550.09;5000893;28;20038;-75
2023/10/22 09:54:39;;;;;;;3.47;1.90;;;;;;;12.21;100.00;100553.66;4995085;28;20064;-75
2023/10/22 09:57:09;;;;;;;3.28;1.92;;;;;;;12.19;100.00;100552.91;4981534;28;20077;-75
2023/10/22 09:59:35;;;;;;;3.63;1.80;;;;;;;12.14;100.00;100557.53;4982783;28;20355;-75
2023/10/22 10:02:01;;;;;;;1.60;1.40;;;;;;;12.10;100.00;100562.09;4980649;28;20057;-75
2023/10/22 10:04:27;;;;;;;2.92;1.50;;;;;;;12.08;100.00;100574.44;4977355;28;20472;-75
2023/10/22 10:06:53;;;;;;;1.50;1.40;;;;;;;12.07;100.00;100570.09;4982623;28;20034;-75
2023/10/22 10:09:21;;;;;;;1.25;1.23;;;;;;;12.09;100.00;100567.41;4987613;28;20069;-75
2023/10/22 10:11:47;;;;;;;2.65;1.40;;;;;;;12.09;100.00;100573.50;4991811;28;20041;-75
2023/10/22 10:14:35;;;;;;;2.20;1.35;;;;;;;12.16;100.00;100575.81;4992487;28;20228;-75
2023/10/22 10:17:01;;;;;;;4.47;1.73;;;;;;;12.18;100.00;100579.22;4981049;28;20038;-75
2023/10/22 10:19:27;;;;;;;4.88;1.73;;;;;;;12.20;100.00;100587.84;4993133;28;20347;-75
2023/10/22 10:21:53;;;;;;;2.25;1.30;;;;;;;12.19;100.00;100592.28;4993774;28;20550;-75
2023/10/22 10:24:28;;;;;;;3.63;1.30;;;;;;;12.19;100.00;100592.28;4993216;28;20044;-75
2023/10/22 10:26:56;;;;;;;1.38;1.27;;;;;;;12.16;100.00;100597.66;4993704;28;20109;-75
2023/10/22 10:29:32;;;;;;;1.52;1.20;;;;;;;12.12;100.00;100603.16;4993493;28;20034;-75
2023/10/22 10:32:18;;;;;;;2.45;1.20;;;;;;;12.08;100.00;100600.69;4993304;28;20034;-75
2023/10/22 10:34:46;;;;;;;2.35;1.73;;;;;;;12.07;100.00;100596.34;4992773;28;20045;-75
2023/10/22 10:37:11;;;;;;;1.50;1.40;;;;;;;12.09;100.00;100609.41;4993567;28;20325;-75
2023/10/22 10:39:47;;;;;;;1.55;1.25;;;;;;;12.08;100.00;100613.81;4993802;28;20120;-75
2023/10/22 10:42:31;;;;;;;2.42;1.30;;;;;;;12.10;100.00;100613.75;4993074;28;20109;-75
2023/10/22 10:45:02;;;;;;;2.40;1.20;;;;;;;12.12;100.00;100621.53;4989333;28;20384;-75
2023/10/22 10:47:35;;;;;;;3.15;1.40;;;;;;;12.16;100.00;100618.66;4993085;28;20045;-75
2023/10/22 10:50:10;;;;;;;4.95;1.55;;;;;;;12.14;100.00;100620.53;4991228;28;20276;-75
2023/10/22 10:52:38;;;;;;;4.10;1.30;;;;;;;12.15;100.00;100619.63;4973872;28;20393;-75
2023/10/22 10:55:15;;;;;;;3.67;1.20;;;;;;;12.18;100.00;100624.69;4988623;28;20042;-75
2023/10/22 10:57:44;;;;;;;2.20;1.10;;;;;;;12.20;100.00;100622.00;4977309;28;20372;-76
2023/10/22 11:00:19;;;;;;;1.77;0.95;;;;;;;12.22;100.00;100620.13;4989567;28;20030;-75
2023/10/22 11:02:46;;;;;;;3.22;1.15;;;;;;;12.23;100.00;100616.59;4992601;28;20045;-75
2023/10/22 11:05:13;;;;;;;2.67;1.10;;;;;;;12.25;100.00;100630.50;4992723;28;20046;-75
2023/10/22 11:07:38;;;;;;;1.23;1.00;;;;;;;12.28;100.00;100627.72;4992601;28;20297;-75
2023/10/22 11:10:12;;;;;;;2.30;1.27;;;;;;;12.29;100.00;100627.59;4991272;28;20038;-75
2023/10/22 11:12:38;;;;;;;4.15;2.05;;;;;;;12.32;100.00;100634.50;4989770;28;20061;-75
2023/10/22 11:15:04;;;;;;;2.47;1.30;;;;;;;12.31;100.00;100632.78;4989520;28;20046;-75
2023/10/22 11:17:30;;;;;;;1.05;0.70;;;;;;;12.32;100.00;100638.91;4992305;28;20340;-75
2023/10/22 11:19:56;;;;;;;6.88;1.38;;;;;;;12.33;100.00;100628.31;4992699;28;20043;-75